Time;durP1;ratioP1;P1;durP2;ratioP2;P2;SDS_P1;SDS_P2;PMS_P1;PMS_P2;Temp;Humidity;BMP_temperature;BMP_pressure;BME280_temperature;BME280_humidity;BME280_pressure;Samples;Min_cycle;Max_cycle;Signal;HPM_P1;HPM_P2
2023/08/15 00:02:40;;;;;;;0.10;0.10;;;;;;;-144.31;100.00;58022.63;5060069;28;20040;-60
2023/08/15 00:06:04;;;;;;;0.10;0.10;;;;;;;-144.31;100.00;58022.63;5059107;28;20040;-59
2023/08/15 00:09:28;;;;;;;0.10;0.10;;;;;;;-144.31;100.00;58022.63;5059164;28;20037;-59
2023/08/15 00:12:52;;;;;;;0.10;0.10;;;;;;;-144.31;100.00;58022.63;5055573;28;21326;-59
2023/08/15 00:16:16;;;;;;;0.10;0.10;;;;;;;-144.31;100.00;58022.63;5057967;28;20040;-59
2023/08/15 00:19:40;;;;;;;0.10;0.10;;;;;;;-144.31;100.00;58022.63;5056580;28;20048;-60
2023/08/15 00:23:04;;;;;;;0.10;0.10;;;;;;;-144.31;100.00;58022.63;5058307;28;20036;-60
2023/08/15 00:26:29;;;;;;;0.10;0.10;;;;;;;-144.31;100.00;58022.63;5057900;28;20033;-60
2023/08/15 00:29:52;;;;;;;0.10;0.10;;;;;;;-144.31;100.00;58022.63;5061390;28;20045;-60
2023/08/15 00:33:16;;;;;;;0.10;0.10;;;;;;;-144.31;100.00;58022.63;5060540;28;20056;-60
2023/08/15 00:36:43;;;;;;;0.10;0.10;;;;;;;-144.31;100.00;58022.63;5049450;28;20458;-60
2023/08/15 00:40:08;;;;;;;0.10;0.10;;;;;;;-144.31;100.00;58022.63;5062751;28;20186;-60
2023/08/15 00:43:32;;;;;;;0.10;0.10;;;;;;;-144.31;100.00;58022.63;5062875;28;20048;-60
2023/08/15 00:46:57;;;;;;;0.10;0.10;;;;;;;-144.31;100.00;58022.63;5063709;28;20035;-59
2023/08/15 00:50:22;;;;;;;;;;;;;;;-144.31;100.00;58022.63;5064844;28;20141;-60
2023/08/15 00:53:48;;;;;;;0.10;0.10;;;;;;;-144.31;100.00;58022.63;5060937;28;19920;-59
2023/08/15 00:57:13;;;;;;;0.10;0.10;;;;;;;-144.31;100.00;58022.63;5064715;28;20054;-59
2023/08/15 01:00:40;;;;;;;0.10;0.10;;;;;;;-144.31;100.00;58022.63;5065422;28;20119;-59
2023/08/15 01:04:05;;;;;;;0.10;0.10;;;;;;;-144.31;100.00;58022.63;5061370;28;20541;-60
2023/08/15 01:07:29;;;;;;;0.10;0.10;;;;;;;-144.31;100.00;58022.63;5059014;28;20130;-60
2023/08/15 01:10:53;;;;;;;0.10;0.10;;;;;;;-144.31;100.00;58022.63;5062299;28;20037;-59
2023/08/15 01:14:19;;;;;;;0.10;0.10;;;;;;;-144.31;100.00;58022.63;5062271;28;20110;-59
2023/08/15 01:17:48;;;;;;;0.10;0.10;;;;;;;-144.31;100.00;58022.63;5056077;28;20032;-59
2023/08/15 01:21:20;;;;;;;0.10;0.10;;;;;;;-144.31;100.00;58022.63;5055735;28;20040;-59
2023/08/15 01:24:45;;;;;;;0.10;0.10;;;;;;;-144.31;100.00;58022.63;5058914;28;20036;-59
2023/08/15 01:28:13;;;;;;;0.10;0.10;;;;;;;-144.31;100.00;58022.63;5061224;28;20037;-59
2023/08/15 01:31:50;;;;;;;0.10;0.10;;;;;;;-144.31;100.00;58022.63;5060232;28;20044;-59
2023/08/15 01:35:21;;;;;;;0.10;0.10;;;;;;;-144.31;100.00;58022.63;5059901;28;20041;-60
2023/08/15 01:38:51;;;;;;;0.10;0.10;;;;;;;-144.31;100.00;58022.63;5063155;28;20064;-59
2023/08/15 01:42:19;;;;;;;0.10;0.10;;;;;;;-144.31;100.00;58022.63;5059194;28;20235;-60
2023/08/15 01:45:44;;;;;;;0.10;0.10;;;;;;;-144.31;100.00;58022.63;5057439;28;20522;-59
2023/08/15 01:49:08;;;;;;;0.10;0.10;;;;;;;-144.31;100.00;58022.63;5061745;28;20478;-60
2023/08/15 01:52:32;;;;;;;0.10;0.10;;;;;;;-144.31;100.00;58022.63;5062140;28;20036;-59
2023/08/15 01:55:58;;;;;;;0.10;0.10;;;;;;;-144.31;100.00;58022.63;5059473;28;20432;-59
2023/08/15 01:59:22;;;;;;;0.10;0.10;;;;;;;-144.31;100.00;58022.63;5060524;28;20611;-60
2023/08/15 02:02:46;;;;;;;0.10;0.10;;;;;;;-144.31;100.00;58022.63;5055771;28;20036;-59
2023/08/15 02:06:10;;;;;;;0.10;0.10;;;;;;;-144.31;100.00;58022.63;5072627;28;20128;-59
2023/08/15 02:09:34;;;;;;;0.10;0.10;;;;;;;-144.31;100.00;58022.63;5059917;28;20044;-59
2023/08/15 02:12:58;;;;;;;0.10;0.10;;;;;;;-144.31;100.00;58022.63;5056685;28;20611;-59
2023/08/15 02:16:22;;;;;;;0.10;0.10;;;;;;;-144.31;100.00;58022.63;5062078;28;20033;-59
2023/08/15 02:19:46;;;;;;;0.10;0.10;;;;;;;-144.31;100.00;58022.63;5045535;28;20043;-60
2023/08/15 02:23:10;;;;;;;0.10;0.10;;;;;;;-144.31;100.00;58022.63;5041711;28;20060;-59
2023/08/15 02:26:35;;;;;;;0.10;0.10;;;;;;;-144.31;100.00;58022.63;5057647;28;20052;-59
2023/08/15 02:30:00;;;;;;;0.20;0.20;;;;;;;-144.31;100.00;58022.63;5043054;28;20041;-59
2023/08/15 02:33:24;;;;;;;0.10;0.10;;;;;;;-144.31;100.00;58022.63;5062336;28;20040;-60
2023/08/15 02:36:49;;;;;;;0.10;0.10;;;;;;;-144.31;100.00;58022.63;5060621;28;20366;-59
2023/08/15 02:40:13;;;;;;;0.20;0.20;;;;;;;-144.31;100.00;58022.63;5055949;28;20072;-60
2023/08/15 02:43:37;;;;;;;0.10;0.10;;;;;;;-144.31;100.00;58022.63;5056372;28;20033;-59
2023/08/15 02:47:01;;;;;;;0.10;0.10;;;;;;;-144.31;100.00;58022.63;5058671;28;20478;-59
2023/08/15 02:50:25;;;;;;;0.13;0.13;;;;;;;-144.31;100.00;58022.63;5055982;28;20068;-59
2023/08/15 02:53:49;;;;;;;0.10;0.10;;;;;;;-144.31;100.00;58022.63;5055898;28;20040;-59
2023/08/15 02:57:13;;;;;;;0.10;0.10;;;;;;;-144.31;100.00;58022.63;5060640;28;20489;-59
2023/08/15 03:00:37;;;;;;;0.10;0.10;;;;;;;-144.31;100.00;58022.63;5059150;28;20049;-59
2023/08/15 03:04:01;;;;;;;0.10;0.10;;;;;;;-144.31;100.00;58022.63;5074849;28;20402;-60
2023/08/15 03:07:25;;;;;;;0.10;0.10;;;;;;;-144.31;100.00;58022.63;5059367;28;20037;-59
2023/08/15 03:10:50;;;;;;;0.15;0.15;;;;;;;-144.31;100.00;58022.63;5058103;28;20040;-59
2023/08/15 03:14:14;;;;;;;0.17;0.17;;;;;;;-144.31;100.00;58022.63;5060142;28;20079;-60
2023/08/15 03:17:38;;;;;;;0.10;0.10;;;;;;;-144.31;100.00;58022.63;5057028;28;20043;-60
2023/08/15 03:21:03;;;;;;;0.10;0.10;;;;;;;-144.31;100.00;58022.63;5057674;28;20477;-60
2023/08/15 03:24:29;;;;;;;0.20;0.20;;;;;;;-144.31;100.00;58022.63;5055006;28;20167;-60
2023/08/15 03:27:54;;;;;;;0.20;0.20;;;;;;;-144.31;100.00;58022.63;5058035;28;20168;-60
2023/08/15 03:31:21;;;;;;;0.10;0.10;;;;;;;-144.31;100.00;58022.63;5040937;28;20052;-60
2023/08/15 03:34:50;;;;;;;0.10;0.10;;;;;;;-144.31;100.00;58022.63;5042979;28;20122;-60
2023/08/15 03:38:18;;;;;;;0.10;0.10;;;;;;;-144.31;100.00;58022.63;5055271;28;20485;-60
2023/08/15 03:41:42;;;;;;;0.10;0.10;;;;;;;-144.31;100.00;58022.63;5058518;28;20121;-59
2023/08/15 03:45:06;;;;;;;0.10;0.10;;;;;;;-144.31;100.00;58022.63;5061414;28;20060;-59
2023/08/15 03:48:30;;;;;;;0.10;0.10;;;;;;;-144.31;100.00;58022.63;5072141;28;20453;-60
2023/08/15 03:51:55;;;;;;;0.10;0.10;;;;;;;-144.31;100.00;58022.63;5057572;28;20043;-59
2023/08/15 03:55:19;;;;;;;0.10;0.10;;;;;;;-144.31;100.00;58022.63;5055332;28;20421;-58
2023/08/15 03:58:44;;;;;;;0.10;0.10;;;;;;;-144.31;100.00;58022.63;5053853;28;20174;-59
2023/08/15 04:02:08;;;;;;;0.10;0.10;;;;;;;-144.31;100.00;58022.63;5058324;28;20041;-59
2023/08/15 04:05:32;;;;;;;0.10;0.10;;;;;;;-144.31;100.00;58022.63;5055896;28;20461;-59
2023/08/15 04:08:56;;;;;;;0.10;0.10;;;;;;;-144.31;100.00;58022.63;5055014;28;20044;-59
2023/08/15 04:12:20;;;;;;;0.10;0.10;;;;;;;-144.31;100.00;58022.63;5060799;28;20032;-59
2023/08/15 04:15:44;;;;;;;0.20;0.20;;;;;;;-144.31;100.00;58022.63;5056529;28;20044;-59
2023/08/15 04:19:09;;;;;;;0.10;0.10;;;;;;;-144.31;100.00;58022.63;5061089;28;20032;-59
2023/08/15 04:22:34;;;;;;;0.13;0.13;;;;;;;-144.31;100.00;58022.63;5065076;28;20474;-59
2023/08/15 04:25:58;;;;;;;0.10;0.10;;;;;;;-144.31;100.00;58022.63;5061593;28;20045;-59
2023/08/15 04:29:23;;;;;;;0.10;0.10;;;;;;;-144.31;100.00;58022.63;5057542;28;20049;-59
2023/08/15 04:32:47;;;;;;;0.10;0.10;;;;;;;-144.31;100.00;58022.63;5065507;28;20490;-59
2023/08/15 04:36:11;;;;;;;0.10;0.10;;;;;;;-144.31;100.00;58022.63;5064641;28;20052;-59
2023/08/15 04:39:36;;;;;;;0.10;0.10;;;;;;;-144.31;100.00;58022.63;5066151;28;20082;-59
2023/08/15 04:43:02;;;;;;;0.10;0.10;;;;;;;-144.31;100.00;58022.63;5061522;28;20040;-59
2023/08/15 04:46:26;;;;;;;0.10;0.10;;;;;;;-144.31;100.00;58022.63;5062079;28;20063;-59
2023/08/15 04:49:50;;;;;;;0.10;0.10;;;;;;;-144.31;100.00;58022.63;5063408;28;20067;-59
2023/08/15 04:53:14;;;;;;;0.10;0.10;;;;;;;-144.31;100.00;58022.63;5060996;28;21781;-59
2023/08/15 04:56:38;;;;;;;0.10;0.10;;;;;;;-144.31;100.00;58022.63;5061899;28;20036;-60
2023/08/15 05:00:03;;;;;;;0.10;0.10;;;;;;;-144.31;100.00;58022.63;5065647;28;20143;-60
2023/08/15 05:03:27;;;;;;;0.10;0.10;;;;;;;-144.31;100.00;58022.63;5062306;28;20040;-59
2023/08/15 05:06:51;;;;;;;0.10;0.10;;;;;;;-144.31;100.00;58022.63;5058365;28;20049;-59
2023/08/15 05:10:16;;;;;;;0.10;0.10;;;;;;;-144.31;100.00;58022.63;5062709;28;20051;-59
2023/08/15 05:13:41;;;;;;;0.10;0.10;;;;;;;-144.31;100.00;58022.63;5056137;28;20068;-59
2023/08/15 05:17:05;;;;;;;0.10;0.10;;;;;;;-144.31;100.00;58022.63;5064071;28;20064;-59
2023/08/15 05:20:30;;;;;;;0.20;0.20;;;;;;;-144.31;100.00;58022.63;5060123;28;20107;-59
2023/08/15 05:23:54;;;;;;;0.10;0.10;;;;;;;-144.31;100.00;58022.63;5060035;28;20025;-59
2023/08/15 05:27:18;;;;;;;0.10;0.10;;;;;;;-144.31;100.00;58022.63;5057004;28;20043;-59
2023/08/15 05:30:43;;;;;;;0.10;0.10;;;;;;;-144.31;100.00;58022.63;5057182;28;20127;-59
2023/08/15 05:34:07;;;;;;;0.10;0.10;;;;;;;-144.31;100.00;58022.63;5058538;28;20452;-59
2023/08/15 05:37:31;;;;;;;0.10;0.10;;;;;;;-144.31;100.00;58022.63;5061891;28;20037;-59
2023/08/15 05:40:55;;;;;;;0.10;0.10;;;;;;;-144.31;100.00;58022.63;5061042;28;20033;-59
2023/08/15 05:44:19;;;;;;;0.10;0.10;;;;;;;-144.31;100.00;58022.63;5053379;28;20159;-59
2023/08/15 05:47:43;;;;;;;0.10;0.10;;;;;;;-144.31;100.00;58022.63;5055191;28;20119;-59
2023/08/15 05:51:07;;;;;;;0.10;0.10;;;;;;;-144.31;100.00;58022.63;5055668;28;20132;-59
2023/08/15 05:54:31;;;;;;;0.10;0.10;;;;;;;-144.31;100.00;58022.63;5054379;28;20075;-59
2023/08/15 05:57:55;;;;;;;0.10;0.10;;;;;;;-144.31;100.00;58022.63;5055867;28;20032;-59
2023/08/15 06:01:21;;;;;;;0.10;0.10;;;;;;;-144.31;100.00;58022.63;5054822;28;20044;-59
2023/08/15 06:04:45;;;;;;;0.10;0.10;;;;;;;-144.31;100.00;58022.63;5056978;28;20037;-59
2023/08/15 06:08:09;;;;;;;0.10;0.10;;;;;;;-144.31;100.00;58022.63;5054165;28;20118;-59
2023/08/15 06:11:33;;;;;;;0.10;0.10;;;;;;;-144.31;100.00;58022.63;5055821;28;20048;-59
2023/08/15 06:14:56;;;;;;;0.10;0.10;;;;;;;-144.31;100.00;58022.63;5052466;28;20120;-59
2023/08/15 06:18:20;;;;;;;0.10;0.10;;;;;;;-144.31;100.00;58022.63;5056724;28;20040;-59
2023/08/15 06:21:44;;;;;;;0.10;0.10;;;;;;;-144.31;100.00;58022.63;5053202;28;20606;-59
2023/08/15 06:25:09;;;;;;;0.10;0.10;;;;;;;-144.31;100.00;58022.63;5052516;28;20107;-60
2023/08/15 06:28:33;;;;;;;0.10;0.10;;;;;;;-144.31;100.00;58022.63;5053811;28;20076;-59
2023/08/15 06:31:57;;;;;;;0.10;0.10;;;;;;;-144.31;100.00;58022.63;5055133;28;20155;-60
2023/08/15 06:35:27;;;;;;;0.10;0.10;;;;;;;-144.31;100.00;58022.63;5049881;28;20044;-58
2023/08/15 06:38:51;;;;;;;0.10;0.10;;;;;;;-144.31;100.00;58022.63;5050774;28;20054;-60
2023/08/15 06:42:15;;;;;;;0.10;0.10;;;;;;;-144.31;100.00;58022.63;5049743;28;20162;-59
2023/08/15 06:45:40;;;;;;;0.10;0.10;;;;;;;-144.31;100.00;58022.63;5058927;28;20479;-60
2023/08/15 06:49:04;;;;;;;0.10;0.10;;;;;;;-144.31;100.00;58022.63;5053188;28;20120;-60
2023/08/15 06:52:28;;;;;;;0.00;0.00;;;;;;;-144.31;100.00;58022.63;5051814;28;20033;-60
2023/08/15 06:55:52;;;;;;;0.00;0.00;;;;;;;-144.31;100.00;58022.63;5051979;28;20040;-59
2023/08/15 06:59:16;;;;;;;0.00;0.00;;;;;;;-144.31;100.00;58022.63;5049502;28;20181;-59
2023/08/15 07:02:40;;;;;;;0.00;0.00;;;;;;;-144.31;100.00;58022.63;5047778;28;20071;-60
2023/08/15 07:06:05;;;;;;;0.10;0.10;;;;;;;-144.31;100.00;58022.63;5053416;28;20252;-60
2023/08/15 07:09:29;;;;;;;0.10;0.10;;;;;;;-144.31;100.00;58022.63;5059656;28;20587;-60
2023/08/15 07:12:53;;;;;;;0.00;0.00;;;;;;;-144.31;100.00;58022.63;5058274;28;20538;-59
2023/08/15 07:16:17;;;;;;;0.00;0.00;;;;;;;-144.31;100.00;58022.63;5053384;28;20048;-59
2023/08/15 07:19:41;;;;;;;0.00;0.00;;;;;;;-144.31;100.00;58022.63;5058918;28;20076;-59
2023/08/15 07:23:05;;;;;;;0.05;0.05;;;;;;;-144.31;100.00;58022.63;5068697;28;20385;-59
2023/08/15 07:26:29;;;;;;;0.00;0.00;;;;;;;-144.31;100.00;58022.63;5052105;28;20044;-60
2023/08/15 07:29:53;;;;;;;0.00;0.00;;;;;;;-144.31;100.00;58022.63;5049604;28;20337;-59
2023/08/15 07:33:17;;;;;;;0.00;0.00;;;;;;;-144.31;100.00;58022.63;5051217;28;20033;-60
2023/08/15 07:36:41;;;;;;;0.00;0.00;;;;;;;-144.31;100.00;58022.63;5053936;28;20037;-60
2023/08/15 07:40:09;;;;;;;0.00;0.00;;;;;;;-144.31;100.00;58022.63;5049925;28;20033;-59
2023/08/15 07:43:33;;;;;;;0.03;0.03;;;;;;;-144.31;100.00;58022.63;5051768;28;20591;-59
2023/08/15 07:46:57;;;;;;;0.00;0.00;;;;;;;-144.31;100.00;58022.63;5049796;28;20041;-60
2023/08/15 07:50:23;;;;;;;0.00;0.00;;;;;;;-144.31;100.00;58022.63;5058225;28;20487;-59
2023/08/15 07:53:47;;;;;;;0.00;0.00;;;;;;;-144.31;100.00;58022.63;5050811;28;20102;-59
2023/08/15 07:57:11;;;;;;;0.00;0.00;;;;;;;-144.31;100.00;58022.63;5049537;28;20096;-60
2023/08/15 08:00:36;;;;;;;0.00;0.00;;;;;;;-144.31;100.00;58022.63;5052192;28;20086;-59
2023/08/15 08:04:00;;;;;;;0.00;0.00;;;;;;;-144.31;100.00;58022.63;5050632;28;20033;-59
2023/08/15 08:07:24;;;;;;;0.00;0.00;;;;;;;-144.31;100.00;58022.63;5050206;28;20056;-60
2023/08/15 08:10:48;;;;;;;0.00;0.00;;;;;;;-144.31;100.00;58022.63;5052360;28;20094;-59
2023/08/15 08:14:12;;;;;;;0.00;0.00;;;;;;;-144.31;100.00;58022.63;5050666;28;20374;-59
2023/08/15 08:17:36;;;;;;;0.00;0.00;;;;;;;-144.31;100.00;58022.63;5057147;28;20156;-59
2023/08/15 08:21:00;;;;;;;0.00;0.00;;;;;;;-144.31;100.00;58022.63;5053440;28;20038;-59
2023/08/15 08:24:24;;;;;;;0.00;0.00;;;;;;;-144.31;100.00;58022.63;5051282;28;20060;-60
2023/08/15 08:27:49;;;;;;;0.00;0.00;;;;;;;-144.31;100.00;58022.63;5051717;28;20040;-60
2023/08/15 08:31:17;;;;;;;0.00;0.00;;;;;;;-144.31;100.00;58022.63;5051038;28;20419;-60
2023/08/15 08:34:41;;;;;;;0.00;0.00;;;;;;;-144.31;100.00;58022.63;5050712;28;20032;-59
2023/08/15 08:38:05;;;;;;;0.00;0.00;;;;;;;-144.31;100.00;58022.63;5050520;28;20059;-60
2023/08/15 08:41:29;;;;;;;0.00;0.00;;;;;;;-144.31;100.00;58022.63;5048557;28;20036;-60
2023/08/15 08:44:55;;;;;;;0.00;0.00;;;;;;;-144.31;100.00;58022.63;5050928;28;20037;-60
2023/08/15 08:48:21;;;;;;;0.00;0.00;;;;;;;-144.31;100.00;58022.63;5065644;28;20066;-60
2023/08/15 08:51:46;;;;;;;0.00;0.00;;;;;;;-144.31;100.00;58022.63;5055132;28;20100;-60
2023/08/15 08:55:11;;;;;;;0.00;0.00;;;;;;;-144.31;100.00;58022.63;5050605;28;20125;-60
2023/08/15 08:58:37;;;;;;;;;;;;;;;-144.31;100.00;58022.63;5054184;28;20471;-59
2023/08/15 09:02:02;;;;;;;0.00;0.00;;;;;;;-144.31;100.00;58022.63;5053758;28;19978;-60
2023/08/15 09:05:29;;;;;;;0.00;0.00;;;;;;;-144.31;100.00;58022.63;5054874;28;20103;-61
2023/08/15 09:08:53;;;;;;;0.00;0.00;;;;;;;-144.31;100.00;58022.63;5051701;28;20040;-60
2023/08/15 09:12:31;;;;;;;0.00;0.00;;;;;;;-144.31;100.00;58022.63;5055479;28;20064;-60
2023/08/15 09:15:59;;;;;;;0.00;0.00;;;;;;;-144.31;100.00;58022.63;5067514;28;20272;-58
2023/08/15 09:19:38;;;;;;;0.00;0.00;;;;;;;-144.31;100.00;58022.63;5053304;28;20047;-59
2023/08/15 09:23:02;;;;;;;0.00;0.00;;;;;;;-144.31;100.00;58022.63;5054120;28;20354;-59
2023/08/15 09:26:31;;;;;;;0.00;0.00;;;;;;;-144.31;100.00;58022.63;5054568;28;20051;-59
2023/08/15 09:29:55;;;;;;;0.00;0.00;;;;;;;-144.31;100.00;58022.63;5052368;28;20041;-59
2023/08/15 09:33:20;;;;;;;0.00;0.00;;;;;;;-144.31;100.00;58022.63;5052536;28;20459;-59
2023/08/15 09:36:44;;;;;;;0.00;0.00;;;;;;;-144.31;100.00;58022.63;5052328;28;20036;-59
2023/08/15 09:40:13;;;;;;;0.00;0.00;;;;;;;-144.31;100.00;58022.63;5053999;28;20156;-60
2023/08/15 09:43:50;;;;;;;0.00;0.00;;;;;;;-144.31;100.00;58022.63;5053081;28;20045;-60
2023/08/15 09:47:16;;;;;;;0.00;0.00;;;;;;;-144.31;100.00;58022.63;5040223;28;20512;-60
2023/08/15 09:50:41;;;;;;;0.00;0.00;;;;;;;-144.31;100.00;58022.63;5045854;28;20094;-59
2023/08/15 09:54:05;;;;;;;;;;;;;;;-144.31;100.00;58022.63;5048672;28;20462;-59
2023/08/15 09:57:29;;;;;;;;;;;;;;;-144.31;100.00;58022.63;5060391;28;19920;-59
2023/08/15 10:00:54;;;;;;;0.00;0.00;;;;;;;-144.31;100.00;58022.63;5055741;28;20389;-59
2023/08/15 10:04:21;;;;;;;0.00;0.00;;;;;;;-144.31;100.00;58022.63;5050883;28;20400;-59
2023/08/15 10:07:46;;;;;;;0.00;0.00;;;;;;;-144.31;100.00;58022.63;5054996;28;20045;-59
2023/08/15 10:11:12;;;;;;;0.00;0.00;;;;;;;-144.31;100.00;58022.63;5053525;28;20491;-60
2023/08/15 10:14:37;;;;;;;0.00;0.00;;;;;;;-144.31;100.00;58022.63;5050563;28;20098;-59
2023/08/15 10:18:01;;;;;;;0.00;0.00;;;;;;;-144.31;100.00;58022.63;5054145;28;20028;-60
2023/08/15 10:21:49;;;;;;;0.00;0.00;;;;;;;-144.31;100.00;58022.63;5055083;28;20060;-61
2023/08/15 10:25:17;;;;;;;0.00;0.00;;;;;;;-144.31;100.00;58022.63;5054068;28;20402;-60
2023/08/15 10:28:45;;;;;;;0.00;0.00;;;;;;;-144.31;100.00;58022.63;5050302;28;20183;-60
2023/08/15 10:32:09;;;;;;;0.00;0.00;;;;;;;-144.31;100.00;58022.63;5052217;28;20540;-59
2023/08/15 10:35:33;;;;;;;0.00;0.00;;;;;;;-144.31;100.00;58022.63;5060508;28;20049;-60
2023/08/15 10:39:02;;;;;;;0.00;0.00;;;;;;;-144.31;100.00;58022.63;5051647;28;20041;-60
2023/08/15 10:42:26;;;;;;;0.00;0.00;;;;;;;-144.31;100.00;58022.63;5055144;28;20120;-60
2023/08/15 10:45:57;;;;;;;0.00;0.00;;;;;;;-144.31;100.00;58022.63;5054394;28;20116;-60
2023/08/15 10:49:40;;;;;;;0.00;0.00;;;;;;;-144.31;100.00;58022.63;5055070;28;21050;-59
2023/08/15 10:53:04;;;;;;;0.00;0.00;;;;;;;-144.31;100.00;58022.63;5045729;28;20079;-60
2023/08/15 10:56:31;;;;;;;0.00;0.00;;;;;;;-144.31;100.00;58022.63;5052969;28;20032;-60
2023/08/15 10:59:57;;;;;;;0.00;0.00;;;;;;;-144.31;100.00;58022.63;5068833;28;20119;-60
2023/08/15 11:03:21;;;;;;;0.00;0.00;;;;;;;-144.31;100.00;58022.63;5054340;28;20048;-59
2023/08/15 11:06:51;;;;;;;0.00;0.00;;;;;;;-144.31;100.00;58022.63;5051567;28;20041;-60
2023/08/15 11:10:15;;;;;;;0.00;0.00;;;;;;;-144.31;100.00;58022.63;5056651;28;20048;-60
2023/08/15 11:13:47;;;;;;;0.00;0.00;;;;;;;-144.31;100.00;58022.63;5060018;28;20032;-60
2023/08/15 11:17:18;;;;;;;0.00;0.00;;;;;;;-144.31;100.00;58022.63;5051559;28;20047;-60
2023/08/15 11:20:42;;;;;;;0.00;0.00;;;;;;;-144.31;100.00;58022.63;5052437;28;20037;-59
2023/08/15 11:24:06;;;;;;;0.00;0.00;;;;;;;-144.31;100.00;58022.63;5052028;28;20115;-60
2023/08/15 11:27:30;;;;;;;0.00;0.00;;;;;;;-144.31;100.00;58022.63;5051867;28;20151;-60
2023/08/15 11:30:55;;;;;;;0.00;0.00;;;;;;;-144.31;100.00;58022.63;5052971;28;20126;-60
2023/08/15 11:34:21;;;;;;;0.00;0.00;;;;;;;-144.31;100.00;58022.63;5052194;28;20040;-60
2023/08/15 11:37:46;;;;;;;0.00;0.00;;;;;;;-144.31;100.00;58022.63;5052653;28;20055;-59
2023/08/15 11:41:10;;;;;;;0.00;0.00;;;;;;;-144.31;100.00;58022.63;5054251;28;20033;-59
2023/08/15 11:44:34;;;;;;;0.00;0.00;;;;;;;-144.31;100.00;58022.63;5053307;28;20036;-59
2023/08/15 11:47:58;;;;;;;0.00;0.00;;;;;;;-144.31;100.00;58022.63;5051145;28;20052;-59
2023/08/15 11:51:23;;;;;;;0.00;0.00;;;;;;;-144.31;100.00;58022.63;5048784;28;20132;-60
2023/08/15 11:54:50;;;;;;;0.00;0.00;;;;;;;-144.31;100.00;58022.63;5052572;28;20045;-60
2023/08/15 11:58:31;;;;;;;0.00;0.00;;;;;;;-144.31;100.00;58022.63;5054342;28;20044;-60
2023/08/15 12:01:55;;;;;;;0.00;0.00;;;;;;;-144.31;100.00;58022.63;5054736;28;20031;-60
2023/08/15 12:05:20;;;;;;;0.00;0.00;;;;;;;-144.31;100.00;58022.63;5055766;28;20044;-60
2023/08/15 12:08:44;;;;;;;0.00;0.00;;;;;;;-144.31;100.00;58022.63;5049627;28;20502;-60
2023/08/15 12:12:16;;;;;;;;;;;;;;;-144.31;100.00;58022.63;5056813;28;20466;-61
2023/08/15 12:15:40;;;;;;;0.00;0.00;;;;;;;-144.31;100.00;58022.63;5054482;28;19998;-61
2023/08/15 12:19:04;;;;;;;0.00;0.00;;;;;;;-144.31;100.00;58022.63;5052280;28;20124;-61
2023/08/15 12:22:28;;;;;;;0.00;0.00;;;;;;;-144.31;100.00;58022.63;5059503;28;20049;-61
2023/08/15 12:25:53;;;;;;;0.00;0.00;;;;;;;-144.31;100.00;58022.63;5056199;28;20405;-61
2023/08/15 12:29:17;;;;;;;0.00;0.00;;;;;;;-144.31;100.00;58022.63;5052021;28;20041;-60
2023/08/15 12:32:41;;;;;;;0.00;0.00;;;;;;;-144.31;100.00;58022.63;5054771;28;20044;-60
2023/08/15 12:36:05;;;;;;;0.00;0.00;;;;;;;-144.31;100.00;58022.63;5056918;28;20033;-60
2023/08/15 12:39:29;;;;;;;0.00;0.00;;;;;;;-144.31;100.00;58022.63;5056164;28;20044;-60
2023/08/15 12:42:53;;;;;;;0.00;0.00;;;;;;;-144.31;100.00;58022.63;5058968;28;20041;-60
2023/08/15 12:46:17;;;;;;;0.00;0.00;;;;;;;-144.31;100.00;58022.63;5056880;28;20063;-61
2023/08/15 12:49:41;;;;;;;0.00;0.00;;;;;;;-144.31;100.00;58022.63;5058593;28;20440;-60
2023/08/15 12:53:05;;;;;;;0.00;0.00;;;;;;;-144.31;100.00;58022.63;5058311;28;20029;-60
2023/08/15 12:56:29;;;;;;;0.00;0.00;;;;;;;-144.31;100.00;58022.63;5056061;28;20044;-60
2023/08/15 12:59:53;;;;;;;;;;;;;;;-144.31;100.00;58022.63;5054563;28;20303;-60
2023/08/15 13:03:18;;;;;;;0.00;0.00;;;;;;;-144.31;100.00;58022.63;5057422;28;20395;-60
2023/08/15 13:06:42;;;;;;;0.00;0.00;;;;;;;-144.31;100.00;58022.63;5054817;28;20037;-61
2023/08/15 13:10:06;;;;;;;0.00;0.00;;;;;;;-144.31;100.00;58022.63;5056444;28;20051;-61
2023/08/15 13:13:30;;;;;;;0.00;0.00;;;;;;;-144.31;100.00;58022.63;5056573;28;20094;-60
2023/08/15 13:16:54;;;;;;;0.00;0.00;;;;;;;-144.31;100.00;58022.63;5038394;28;20612;-60
2023/08/15 13:20:18;;;;;;;0.00;0.00;;;;;;;-144.31;100.00;58022.63;5058106;28;20076;-61
2023/08/15 13:23:42;;;;;;;0.00;0.00;;;;;;;-144.31;100.00;58022.63;5055848;28;20475;-61
2023/08/15 13:27:05;;;;;;;;;;;;;;;-144.31;100.00;58022.63;5059062;28;20537;-61
2023/08/15 13:30:29;;;;;;;0.00;0.00;;;;;;;-144.31;100.00;58022.63;5057455;28;20420;-61
2023/08/15 13:33:54;;;;;;;0.00;0.00;;;;;;;-144.31;100.00;58022.63;5055467;28;20038;-61
2023/08/15 13:37:18;;;;;;;0.00;0.00;;;;;;;-144.31;100.00;58022.63;5055419;28;20127;-60
2023/08/15 13:40:42;;;;;;;0.00;0.00;;;;;;;-144.31;100.00;58022.63;5054864;28;20491;-60
2023/08/15 13:44:07;;;;;;;0.00;0.00;;;;;;;-144.31;100.00;58022.63;5055149;28;20029;-60
2023/08/15 13:47:31;;;;;;;0.00;0.00;;;;;;;-144.31;100.00;58022.63;5052878;28;20041;-60
2023/08/15 13:50:55;;;;;;;0.00;0.00;;;;;;;-144.31;100.00;58022.63;5055024;28;20037;-59
2023/08/15 13:54:19;;;;;;;;;;;;;;;-144.31;100.00;58022.63;5063228;28;20047;-59
2023/08/15 13:57:43;;;;;;;0.00;0.00;;;;;;;-144.31;100.00;58022.63;5046441;28;20022;-60
2023/08/15 14:01:07;;;;;;;0.00;0.00;;;;;;;-144.31;100.00;58022.63;5050272;28;20041;-59
2023/08/15 14:04:31;;;;;;;0.00;0.00;;;;;;;-144.31;100.00;58022.63;5055212;28;20125;-60
2023/08/15 14:07:55;;;;;;;0.00;0.00;;;;;;;-144.31;100.00;58022.63;5054806;28;20033;-59
2023/08/15 14:11:20;;;;;;;0.00;0.00;;;;;;;-144.31;100.00;58022.63;5053504;28;20045;-59
2023/08/15 14:14:44;;;;;;;0.00;0.00;;;;;;;-144.31;100.00;58022.63;5056984;28;20064;-60
2023/08/15 14:18:07;;;;;;;0.00;0.00;;;;;;;-144.31;100.00;58022.63;5057344;28;20386;-59
2023/08/15 14:21:34;;;;;;;0.00;0.00;;;;;;;-144.31;100.00;58022.63;5058743;28;20103;-60
2023/08/15 14:24:58;;;;;;;0.00;0.00;;;;;;;-144.31;100.00;58022.63;5057977;28;20234;-60
2023/08/15 14:28:22;;;;;;;0.00;0.00;;;;;;;-144.31;100.00;58022.63;5062799;28;20106;-59
2023/08/15 14:31:46;;;;;;;0.00;0.00;;;;;;;-144.31;100.00;58022.63;5056335;28;20036;-59
2023/08/15 14:35:10;;;;;;;0.00;0.00;;;;;;;-144.31;100.00;58022.63;5053451;28;20040;-60
2023/08/15 14:38:34;;;;;;;0.00;0.00;;;;;;;-144.31;100.00;58022.63;5063822;28;20036;-60
2023/08/15 14:41:58;;;;;;;0.00;0.00;;;;;;;-144.31;100.00;58022.63;5057684;28;20032;-60
2023/08/15 14:45:22;;;;;;;0.00;0.00;;;;;;;-144.31;100.00;58022.63;5056381;28;20064;-60
2023/08/15 14:48:46;;;;;;;0.00;0.00;;;;;;;-144.31;100.00;58022.63;5054211;28;20039;-60
2023/08/15 14:52:10;;;;;;;0.00;0.00;;;;;;;-144.31;100.00;58022.63;5053069;28;20036;-59
2023/08/15 14:55:34;;;;;;;0.00;0.00;;;;;;;-144.31;100.00;58022.63;5053228;28;20067;-60
2023/08/15 14:58:58;;;;;;;0.00;0.00;;;;;;;-144.31;100.00;58022.63;5052308;28;20964;-59
2023/08/15 15:02:22;;;;;;;0.00;0.00;;;;;;;-144.31;100.00;58022.63;5054551;28;20377;-60
2023/08/15 15:05:45;;;;;;;0.00;0.00;;;;;;;-144.31;100.00;58022.63;5054682;28;20044;-59
2023/08/15 15:09:09;;;;;;;0.00;0.00;;;;;;;-144.31;100.00;58022.63;5052936;28;20029;-59
2023/08/15 15:12:33;;;;;;;0.00;0.00;;;;;;;-144.31;100.00;58022.63;5055595;28;20515;-59
2023/08/15 15:15:57;;;;;;;0.00;0.00;;;;;;;-144.31;100.00;58022.63;5052722;28;20037;-60
2023/08/15 15:19:22;;;;;;;0.00;0.00;;;;;;;-144.31;100.00;58022.63;5053762;28;20134;-60
2023/08/15 15:22:46;;;;;;;0.00;0.00;;;;;;;-144.31;100.00;58022.63;5054472;28;20056;-60
2023/08/15 15:26:10;;;;;;;0.00;0.00;;;;;;;-144.31;100.00;58022.63;5054031;28;20040;-60
2023/08/15 15:29:34;;;;;;;0.00;0.00;;;;;;;-144.31;100.00;58022.63;5052665;28;20517;-61
2023/08/15 15:32:58;;;;;;;0.00;0.00;;;;;;;-144.31;100.00;58022.63;5051235;28;20501;-60
2023/08/15 15:36:23;;;;;;;0.00;0.00;;;;;;;-144.31;100.00;58022.63;5051918;28;20079;-60